createdAt,value
2022-10-05T00:02:21.487Z,100892.22
2022-10-05T00:04:56.627Z,100901.09
2022-10-05T00:07:24.635Z,100894.06
2022-10-05T00:09:57.343Z,100896.75
2022-10-05T00:12:25.715Z,100893.25
2022-10-05T00:14:56.787Z,100881.75
2022-10-05T00:17:25.916Z,100888.75
2022-10-05T00:19:53.854Z,100892.22
2022-10-05T00:22:29.875Z,100887.72
2022-10-05T00:24:59.503Z,100892.06
2022-10-05T00:27:33.321Z,100879.66
2022-10-05T00:30:03.080Z,100891.97
2022-10-05T00:32:29.605Z,100879.59
2022-10-05T00:34:57.178Z,100881.31
2022-10-05T00:37:23.723Z,100893.69
2022-10-05T00:39:50.392Z,100871.63
2022-10-05T00:42:42.058Z,100879.53
2022-10-05T00:45:38.109Z,100884.81
2022-10-05T00:48:29.272Z,100877.72
2022-10-05T00:51:14.265Z,100883.03
2022-10-05T00:53:48.503Z,100879.56
2022-10-05T00:56:48.982Z,100880.47
2022-10-05T00:59:45.171Z,100877.88
2022-10-05T01:02:42.747Z,100884.13
2022-10-05T01:05:30.661Z,100878.03
2022-10-05T01:08:11.571Z,100866.59
2022-10-05T01:10:40.477Z,100868.38
2022-10-05T01:13:25.838Z,100875.53
2022-10-05T01:16:25.710Z,100875.63
2022-10-05T01:19:09.334Z,100874.75
2022-10-05T01:21:46.389Z,100873.91
2022-10-05T01:24:34.620Z,100872.13
2022-10-05T01:27:13.381Z,100868.56
2022-10-05T01:29:55.053Z,100867.69
2022-10-05T01:32:35.672Z,100869.47
2022-10-05T01:35:20.892Z,100881.88
2022-10-05T01:38:00.429Z,100881.94
2022-10-05T01:40:39.585Z,100886.53
2022-10-05T01:43:32.853Z,100886.59
2022-10-05T01:46:33.827Z,100874.34
2022-10-05T01:49:34.295Z,100875.28
2022-10-05T01:52:33.469Z,100869.19
2022-10-05T01:55:18.325Z,100870.13
2022-10-05T01:57:47.497Z,100871.03
2022-10-05T02:00:18.228Z,100874.59
2022-10-05T02:02:56.389Z,100869.31
2022-10-05T02:05:56.241Z,100861.41
2022-10-05T02:08:47.152Z,100857.03
2022-10-05T02:11:17.336Z,100850.03
2022-10-05T02:14:02.983Z,100846.56
2022-10-05T02:16:37.693Z,100845.72
2022-10-05T02:19:27.436Z,100845.72
2022-10-05T02:22:01.589Z,100843.09
2022-10-05T02:24:43.513Z,100831.66
2022-10-05T02:27:14.665Z,100834.34
2022-10-05T02:29:45.753Z,100835.22
2022-10-05T02:32:22.562Z,100819.38
2022-10-05T02:34:49.897Z,100822.91
2022-10-05T02:37:45.689Z,100816.78
2022-10-05T02:41:00.390Z,100807.06
2022-10-05T02:43:55.217Z,100800.88
2022-10-05T02:46:36.703Z,100798.22
2022-10-05T02:49:20.612Z,100802.66
2022-10-05T02:51:56.796Z,100792.97
2022-10-05T02:54:35.225Z,100787.69
2022-10-05T02:57:39.618Z,100788.56
2022-10-05T03:00:15.439Z,100793.91
2022-10-05T03:02:48.664Z,100795.69
2022-10-05T03:05:23.741Z,100797.47
2022-10-05T03:08:18.158Z,100801.06
2022-10-05T03:11:09.951Z,100797.53
2022-10-05T03:14:09.594Z,100796.69
2022-10-05T03:16:55.691Z,100799.34
2022-10-05T03:19:40.243Z,100792.28
2022-10-05T03:22:34.622Z,100791.41
2022-10-05T03:25:22.325Z,100783.44
2022-10-05T03:28:15.228Z,100779.03
2022-10-05T03:30:55.296Z,100779.97
2022-10-05T03:33:44.487Z,100777.28
2022-10-05T03:36:18.388Z,100771.09
2022-10-05T03:39:31.590Z,100775.50
2022-10-05T03:42:26.747Z,100771.97
2022-10-05T03:45:04.785Z,100772.81
2022-10-05T03:47:52.261Z,100780.75
2022-10-05T03:50:44.437Z,100775.41
2022-10-05T03:53:19.466Z,100772.72
2022-10-05T03:56:03.228Z,100762.13
2022-10-05T03:58:39.292Z,100755.06
2022-10-05T04:01:15.239Z,100753.25
2022-10-05T04:03:50.078Z,100762.94
2022-10-05T04:06:26.335Z,100755.91
2022-10-05T04:09:03.301Z,100747.03
2022-10-05T04:11:47.019Z,100755.00
2022-10-05T04:14:39.870Z,100759.47
2022-10-05T04:17:13.203Z,100747.06
2022-10-05T04:20:13.234Z,100757.63
2022-10-05T04:22:49.680Z,100755.88
2022-10-05T04:25:32.231Z,100752.31
2022-10-05T04:28:20.237Z,100743.47
2022-10-05T04:30:51.352Z,100750.50
2022-10-05T04:33:18.028Z,100749.59
2022-10-05T04:35:56.943Z,100746.09
2022-10-05T04:39:02.326Z,100731.97
2022-10-05T04:41:33.428Z,100726.66
2022-10-05T04:44:42.235Z,100715.13
2022-10-05T04:47:39.579Z,100716.91
2022-10-05T04:50:24.506Z,100701.91
2022-10-05T04:53:25.822Z,100708.13
2022-10-05T04:56:10.032Z,100703.72
2022-10-05T04:58:47.775Z,100699.34
2022-10-05T05:01:40.912Z,100707.28
2022-10-05T05:04:20.701Z,100707.28
2022-10-05T05:07:36.790Z,100703.72
2022-10-05T05:10:28.390Z,100710.84
2022-10-05T05:13:19.745Z,100709.09
2022-10-05T05:16:09.832Z,100712.69
2022-10-05T05:18:48.763Z,100707.38
2022-10-05T05:21:43.126Z,100711.84
2022-10-05T05:24:27.888Z,100719.81
2022-10-05T05:27:08.301Z,100712.75
2022-10-05T05:29:54.051Z,100706.53
2022-10-05T05:32:33.672Z,100720.69
2022-10-05T05:35:27.818Z,100714.50
2022-10-05T05:38:13.093Z,100728.59
2022-10-05T05:40:49.357Z,100723.28
2022-10-05T05:43:31.750Z,100739.19
2022-10-05T05:46:14.604Z,100725.94
2022-10-05T05:48:47.205Z,100723.25
2022-10-05T05:51:24.305Z,100724.09
2022-10-05T05:53:57.228Z,100729.41
2022-10-05T05:56:38.302Z,100735.53
2022-10-05T05:59:15.779Z,100737.31
2022-10-05T06:01:59.561Z,100743.56
2022-10-05T06:04:41.593Z,100740.94
2022-10-05T06:07:16.361Z,100728.66
2022-10-05T06:09:52.385Z,100747.22
2022-10-05T06:12:28.115Z,100750.78
2022-10-05T06:14:56.640Z,100742.00
2022-10-05T06:17:35.786Z,100738.47
2022-10-05T06:20:10.132Z,100742.91
2022-10-05T06:22:42.871Z,100745.59
2022-10-05T06:25:12.623Z,100754.47
2022-10-05T06:28:03.136Z,100748.34
2022-10-05T06:30:43.572Z,100748.41
2022-10-05T06:33:23.880Z,100748.50
2022-10-05T06:36:33.620Z,100740.63
2022-10-05T06:39:13.187Z,100749.53
2022-10-05T06:41:39.758Z,100741.69
2022-10-05T06:44:12.665Z,100745.25
2022-10-05T06:47:16.351Z,100747.13
2022-10-05T06:50:42.421Z,100742.81
2022-10-05T06:53:40.861Z,100751.69
2022-10-05T06:56:14.645Z,100761.50
2022-10-05T06:58:59.595Z,100751.72
2022-10-05T07:01:30.985Z,100748.22
2022-10-05T07:04:15.609Z,100754.44
2022-10-05T07:06:50.463Z,100747.34
2022-10-05T07:09:31.832Z,100749.13
2022-10-05T07:12:30.062Z,100755.34
2022-10-05T07:14:59.397Z,100750.00
2022-10-05T07:17:55.342Z,100750.00
2022-10-05T07:20:34.028Z,100746.50
2022-10-05T07:23:23.165Z,100749.13
2022-10-05T07:26:22.719Z,100744.69
2022-10-05T07:29:12.763Z,100745.59
2022-10-05T07:31:47.984Z,100744.75
2022-10-05T07:34:59.616Z,100745.66
2022-10-05T07:37:54.820Z,100743.94
2022-10-05T07:40:31.730Z,100740.47
2022-10-05T07:43:35.961Z,100742.28
2022-10-05T07:46:35.475Z,100740.50
2022-10-05T07:49:14.292Z,100745.88
2022-10-05T07:52:11.248Z,100738.75
2022-10-05T07:54:57.133Z,100738.75
2022-10-05T07:57:55.106Z,100748.53
2022-10-05T08:00:24.662Z,100737.00
2022-10-05T08:03:06.371Z,100739.63
2022-10-05T08:05:37.787Z,100743.16
2022-10-05T08:08:26.149Z,100736.03
2022-10-05T08:11:19.094Z,100735.13
2022-10-05T08:13:51.289Z,100732.47
2022-10-05T08:16:18.853Z,100739.56
2022-10-05T08:18:45.380Z,100736.03
2022-10-05T08:21:16.083Z,100733.38
2022-10-05T08:23:50.623Z,100734.22
2022-10-05T08:26:46.277Z,100739.56
2022-10-05T08:29:24.184Z,100724.47
2022-10-05T08:31:57.612Z,100727.16
2022-10-05T08:34:49.171Z,100730.69
2022-10-05T08:37:21.173Z,100738.72
2022-10-05T08:40:22.534Z,100739.59
2022-10-05T08:43:01.328Z,100737.81
2022-10-05T08:45:33.856Z,100749.38
2022-10-05T08:48:18.471Z,100749.34
2022-10-05T08:51:02.622Z,100752.03
2022-10-05T08:54:06.751Z,100742.22
2022-10-05T08:56:44.772Z,100751.97
2022-10-05T08:59:29.580Z,100756.44
2022-10-05T09:02:17.115Z,100755.53
2022-10-05T09:05:17.963Z,100749.31
2022-10-05T09:08:14.831Z,100742.22
2022-10-05T09:11:12.957Z,100744.84
2022-10-05T09:14:10.509Z,100744.81
2022-10-05T09:16:43.256Z,100739.44
2022-10-05T09:19:32.986Z,100736.69
2022-10-05T09:22:44.917Z,100741.06
2022-10-05T09:25:17.553Z,100742.75
2022-10-05T09:27:49.880Z,100742.72
2022-10-05T09:30:23.434Z,100742.69
2022-10-05T09:33:13.715Z,100741.69
2022-10-05T09:35:52.381Z,100743.38
2022-10-05T09:39:00.681Z,100747.75
2022-10-05T09:42:12.421Z,100741.50
2022-10-05T09:45:11.391Z,100744.94
2022-10-05T09:47:45.216Z,100742.13
2022-10-05T09:50:37.926Z,100738.47
2022-10-05T09:53:05.060Z,100743.75
2022-10-05T09:56:01.247Z,100742.69
2022-10-05T09:58:56.309Z,100748.84
2022-10-05T10:01:38.164Z,100755.78
2022-10-05T10:05:05.580Z,100748.63
2022-10-05T10:07:56.842Z,100747.69
2022-10-05T10:10:54.443Z,100751.28
2022-10-05T10:13:43.009Z,100743.19
2022-10-05T10:16:13.426Z,100746.59
2022-10-05T10:18:42.988Z,100751.88
2022-10-05T10:21:37.538Z,100748.22
2022-10-05T10:24:14.103Z,100743.69
2022-10-05T10:26:55.392Z,100750.84
2022-10-05T10:29:42.432Z,100737.47
2022-10-05T10:32:27.927Z,100737.44
2022-10-05T10:38:34.904Z,100743.56
2022-10-05T10:41:26.325Z,100727.44
2022-10-05T10:44:20.537Z,100730.88
2022-10-05T10:47:22.397Z,100727.19
2022-10-05T10:50:25.791Z,100718.09
2022-10-05T10:53:10.686Z,100721.78
2022-10-05T10:56:14.662Z,100723.59
2022-10-05T10:59:12.820Z,100722.66
2022-10-05T11:01:42.506Z,100727.09
2022-10-05T11:04:30.813Z,100729.06
2022-10-05T11:07:31.547Z,100726.34
2022-10-05T11:10:26.067Z,100728.03
2022-10-05T11:13:17.319Z,100729.69
2022-10-05T11:15:52.400Z,100718.28
2022-10-05T11:18:45.776Z,100717.38
2022-10-05T11:21:37.627Z,100715.63
2022-10-05T11:24:43.123Z,100712.03
2022-10-05T11:27:20.187Z,100715.50
2022-10-05T11:30:05.151Z,100711.13
2022-10-05T11:32:43.877Z,100709.38
2022-10-05T11:35:29.633Z,100705.84
2022-10-05T11:37:56.128Z,100704.13
2022-10-05T11:40:26.678Z,100705.03
2022-10-05T11:43:09.884Z,100704.25
2022-10-05T11:46:20.842Z,100699.84
2022-10-05T11:49:25.658Z,100701.59
2022-10-05T11:52:10.525Z,100695.41
2022-10-05T11:55:09.932Z,100684.72
2022-10-05T11:58:01.657Z,100682.00
2022-10-05T12:00:34.238Z,100675.75
2022-10-05T12:03:10.096Z,100680.16
2022-10-05T12:06:04.391Z,100672.88
2022-10-05T12:08:53.427Z,100668.28
2022-10-05T12:11:57.669Z,100669.03
2022-10-05T12:15:02.954Z,100667.91
2022-10-05T12:17:48.290Z,100666.94
2022-10-05T12:20:24.093Z,100659.75
2022-10-05T12:22:59.032Z,100654.41
2022-10-05T12:25:50.248Z,100659.75
2022-10-05T12:28:22.894Z,100659.72
2022-10-05T12:30:58.969Z,100655.22
2022-10-05T12:33:43.281Z,100652.44
2022-10-05T12:36:19.396Z,100649.75
2022-10-05T12:38:54.756Z,100642.63
2022-10-05T12:41:36.833Z,100639.91
2022-10-05T12:44:22.033Z,100633.63
2022-10-05T12:47:10.143Z,100630.78
2022-10-05T12:49:45.597Z,100628.97
2022-10-05T12:52:44.761Z,100623.53
2022-10-05T12:55:28.251Z,100623.53
2022-10-05T12:57:57.799Z,100615.44
2022-10-05T13:00:24.539Z,100611.78
2022-10-05T13:02:59.993Z,100614.34
2022-10-05T13:05:32.352Z,100608.81
2022-10-05T13:08:24.637Z,100603.63
2022-10-05T13:11:22.098Z,100598.75
2022-10-05T13:14:03.812Z,100595.47
2022-10-05T13:16:44.938Z,100582.44
2022-10-05T13:19:30.096Z,100585.38
2022-10-05T13:22:08.666Z,100590.00
2022-10-05T13:24:42.300Z,100577.69
2022-10-05T13:27:18.143Z,100571.59
2022-10-05T13:30:13.362Z,100569.94
2022-10-05T13:32:43.355Z,100573.50
2022-10-05T13:35:28.422Z,100561.81
2022-10-05T13:38:16.799Z,100565.41
2022-10-05T13:40:54.769Z,100568.22
2022-10-05T13:43:44.864Z,100566.41
2022-10-05T13:46:11.797Z,100561.06
2022-10-05T13:48:53.021Z,100571.78
2022-10-05T13:51:28.246Z,100570.94
2022-10-05T13:54:16.881Z,100565.59
2022-10-05T13:56:48.549Z,100562.81
2022-10-05T13:59:18.682Z,100553.75
2022-10-05T14:01:59.250Z,100546.69
2022-10-05T14:04:46.968Z,100544.09
2022-10-05T14:07:37.068Z,100541.47
2022-10-05T14:10:11.486Z,100533.50
2022-10-05T14:12:44.166Z,100537.97
2022-10-05T14:15:28.570Z,100533.56
2022-10-05T14:17:55.311Z,100531.78
2022-10-05T14:20:26.565Z,100531.78
2022-10-05T14:23:05.896Z,100515.84
2022-10-05T14:25:46.576Z,100516.72
2022-10-05T14:28:24.899Z,100515.84
2022-10-05T14:31:11.243Z,100506.97
2022-10-05T14:33:38.227Z,100507.91
2022-10-05T14:36:12.246Z,100497.25
2022-10-05T14:39:00.632Z,100497.25
2022-10-05T14:41:28.781Z,100483.03
2022-10-05T14:44:16.230Z,100472.38
2022-10-05T14:46:55.834Z,100483.97
2022-10-05T14:49:33.198Z,100474.19
2022-10-05T14:51:59.694Z,100468.88
2022-10-05T14:54:35.935Z,100459.13
2022-10-05T14:57:39.202Z,100466.31
2022-10-05T15:00:12.322Z,100464.56
2022-10-05T15:02:54.489Z,100470.81
2022-10-05T15:05:44.909Z,100461.88
2022-10-05T15:08:11.369Z,100473.50
2022-10-05T15:10:49.942Z,100469.09
2022-10-05T15:13:20.669Z,100459.34
2022-10-05T15:15:54.649Z,100463.81
2022-10-05T15:18:34.686Z,100459.31
2022-10-05T15:21:30.261Z,100454.00
2022-10-05T15:24:13.182Z,100454.03
2022-10-05T15:26:58.950Z,100443.38
2022-10-05T15:29:52.621Z,100451.41
2022-10-05T15:32:41.531Z,100439.84
2022-10-05T15:35:48.903Z,100439.88
2022-10-05T15:38:25.717Z,100438.16
2022-10-05T15:41:14.829Z,100429.28
2022-10-05T15:43:51.387Z,100440.84
2022-10-05T15:46:24.463Z,100433.72
2022-10-05T15:49:10.044Z,100431.09
2022-10-05T15:51:50.184Z,100436.50
2022-10-05T15:54:58.430Z,100428.50
2022-10-05T15:58:08.280Z,100430.28
2022-10-05T16:00:47.696Z,100430.31
2022-10-05T16:03:38.219Z,100426.78
2022-10-05T16:06:56.589Z,100426.84
2022-10-05T16:09:25.785Z,100428.63
2022-10-05T16:12:04.003Z,100429.59
2022-10-05T16:14:39.787Z,100432.38
2022-10-05T16:17:34.001Z,100432.50
2022-10-05T16:20:31.766Z,100417.41
2022-10-05T16:23:34.079Z,100430.72
2022-10-05T16:26:32.566Z,100421.94
2022-10-05T16:29:14.879Z,100414.00
2022-10-05T16:32:00.196Z,100416.75
2022-10-05T16:34:45.475Z,100409.78
2022-10-05T16:37:28.112Z,100413.44
2022-10-05T16:39:59.339Z,100415.28
2022-10-05T16:42:29.210Z,100397.59
2022-10-05T16:45:06.744Z,100409.25
2022-10-05T16:47:45.189Z,100411.13
2022-10-05T16:50:23.697Z,100415.63
2022-10-05T16:53:21.723Z,100423.72
2022-10-05T16:55:53.361Z,100415.75
2022-10-05T16:59:01.764Z,100415.84
2022-10-05T17:02:04.321Z,100423.03
2022-10-05T17:04:49.473Z,100421.31
2022-10-05T17:07:40.854Z,100424.94
2022-10-05T17:10:30.668Z,100424.97
2022-10-05T17:13:13.655Z,100429.50
2022-10-05T17:16:19.840Z,100432.19
2022-10-05T17:19:04.662Z,100438.44
2022-10-05T17:21:40.262Z,100434.94
2022-10-05T17:24:41.679Z,100439.38
2022-10-05T17:27:35.224Z,100444.75
2022-10-05T17:30:45.412Z,100445.63
2022-10-05T17:33:13.935Z,100448.31
2022-10-05T17:35:52.179Z,100453.66
2022-10-05T17:38:44.808Z,100452.81
2022-10-05T17:41:29.447Z,100469.69
2022-10-05T17:44:19.135Z,100468.78
2022-10-05T17:46:57.240Z,100471.44
2022-10-05T17:50:18.241Z,100482.13
2022-10-05T17:53:23.719Z,100492.78
2022-10-05T17:56:04.129Z,100484.78
2022-10-05T17:58:30.604Z,100490.06
2022-10-05T18:00:57.114Z,100488.28
2022-10-05T18:03:33.640Z,100496.22
2022-10-05T18:06:32.702Z,100503.28
2022-10-05T18:09:16.850Z,100495.25
2022-10-05T18:11:45.082Z,100500.56
2022-10-05T18:15:04.304Z,100497.91
2022-10-05T18:17:47.727Z,100497.84
2022-10-05T18:20:31.890Z,100497.84
2022-10-05T18:23:07.737Z,100486.28
2022-10-05T18:25:44.665Z,100499.59
2022-10-05T18:28:17.191Z,100487.13
2022-10-05T18:31:03.359Z,100493.25
2022-10-05T18:33:49.220Z,100496.81
2022-10-05T18:36:37.668Z,100489.66
2022-10-05T18:39:18.083Z,100502.06
2022-10-05T18:42:07.039Z,100484.25
2022-10-05T18:44:41.929Z,100494.94
2022-10-05T18:47:37.481Z,100502.00
2022-10-05T18:50:21.276Z,100501.09
2022-10-05T18:53:09.718Z,100501.09
2022-10-05T18:55:46.901Z,100514.38
2022-10-05T18:58:28.825Z,100510.84
2022-10-05T19:01:20.552Z,100503.69
2022-10-05T19:04:09.407Z,100502.75
2022-10-05T19:06:50.226Z,100508.09
2022-10-05T19:09:47.188Z,100512.56
2022-10-05T19:12:35.954Z,100511.69
2022-10-05T19:15:35.782Z,100515.22
2022-10-05T19:18:41.379Z,100529.44
2022-10-05T19:21:40.582Z,100526.78
2022-10-05T19:24:17.011Z,100524.13
2022-10-05T19:27:06.717Z,100534.81
2022-10-05T19:30:01.627Z,100528.59
2022-10-05T19:32:37.176Z,100529.50
2022-10-05T19:35:15.872Z,100526.00
2022-10-05T19:37:54.697Z,100540.22
2022-10-05T19:40:40.446Z,100535.78
2022-10-05T19:43:40.690Z,100542.91
2022-10-05T19:46:30.749Z,100547.38
2022-10-05T19:48:57.791Z,100549.16
2022-10-05T19:51:25.466Z,100549.16
2022-10-05T19:53:55.892Z,100540.28
2022-10-05T19:56:25.852Z,100534.06
2022-10-05T19:58:56.443Z,100541.19
2022-10-05T20:01:36.918Z,100543.84
2022-10-05T20:04:05.066Z,100547.41
2022-10-05T20:06:31.637Z,100548.31
2022-10-05T20:09:00.406Z,100551.88
2022-10-05T20:11:49.119Z,100554.56
2022-10-05T20:14:15.595Z,100551.94
2022-10-05T20:17:01.146Z,100551.06
2022-10-05T20:19:36.643Z,100558.16
2022-10-05T20:22:26.688Z,100562.59
2022-10-05T20:25:00.182Z,100567.03
2022-10-05T20:27:48.174Z,100567.06
2022-10-05T20:30:18.766Z,100568.84
2022-10-05T20:32:53.158Z,100573.34
2022-10-05T20:35:23.794Z,100576.88
2022-10-05T20:37:50.461Z,100577.75
2022-10-05T20:40:19.721Z,100581.34
2022-10-05T20:42:47.148Z,100582.19
2022-10-05T20:45:14.222Z,100590.19
2022-10-05T20:47:42.092Z,100591.97
2022-10-05T20:50:10.208Z,100593.72
2022-10-05T20:52:37.590Z,100600.78
2022-10-05T20:55:09.225Z,100611.47
2022-10-05T20:57:38.596Z,100598.97
2022-10-05T21:00:05.937Z,100591.84
2022-10-05T21:02:32.499Z,100594.53
2022-10-05T21:04:59.303Z,100593.59
2022-10-05T21:07:25.914Z,100611.38
2022-10-05T21:09:52.531Z,100614.06
2022-10-05T21:12:19.070Z,100618.44
2022-10-05T21:14:46.218Z,100624.66
2022-10-05T21:17:12.890Z,100619.22
2022-10-05T21:19:40.305Z,100626.25
2022-10-05T21:22:09.291Z,100626.22
2022-10-05T21:24:40.833Z,100635.03
2022-10-05T21:27:08.172Z,100630.56
2022-10-05T21:29:36.409Z,100629.63
2022-10-05T21:32:03.758Z,100641.13
2022-10-05T21:34:30.357Z,100650.84
2022-10-05T21:36:56.911Z,100657.03
2022-10-05T21:39:24.712Z,100642.78
2022-10-05T21:41:51.438Z,100652.63
2022-10-05T21:44:18.329Z,100653.56
2022-10-05T21:46:45.221Z,100654.44
2022-10-05T21:49:14.168Z,100658.03
2022-10-05T21:51:44.907Z,100658.97
2022-10-05T21:54:18.683Z,100657.19
2022-10-05T21:56:49.486Z,100665.25
2022-10-05T21:59:19.229Z,100655.47
2022-10-05T22:01:46.014Z,100666.09
2022-10-05T22:04:12.639Z,100668.75
2022-10-05T22:06:39.351Z,100665.13
2022-10-05T22:09:06.110Z,100666.91
2022-10-05T22:11:33.628Z,100682.00
2022-10-05T22:14:03.229Z,100671.31
2022-10-05T22:16:38.853Z,100671.38
2022-10-05T22:19:14.287Z,100679.41
2022-10-05T22:21:41.893Z,100673.19
2022-10-05T22:24:11.489Z,100687.44
2022-10-05T22:26:39.793Z,100684.75
2022-10-05T22:29:06.413Z,100678.50
2022-10-05T22:31:33.081Z,100675.84
2022-10-05T22:33:59.720Z,100683.88
2022-10-05T22:36:26.772Z,100689.16
2022-10-05T22:38:53.327Z,100694.47
2022-10-05T22:41:19.937Z,100690.00
2022-10-05T22:43:50.831Z,100699.78
2022-10-05T22:46:18.397Z,100695.31
2022-10-05T22:48:45.038Z,100699.72
2022-10-05T22:51:11.815Z,100694.38
2022-10-05T22:53:38.428Z,100694.41
2022-10-05T22:56:07.253Z,100695.22
2022-10-05T22:58:33.834Z,100691.69
2022-10-05T23:01:04.853Z,100692.56
2022-10-05T23:03:32.424Z,100703.25
2022-10-05T23:06:03.075Z,100699.69
2022-10-05T23:08:31.720Z,100688.13
2022-10-05T23:11:02.395Z,100696.22
2022-10-05T23:13:30.004Z,100692.75
2022-10-05T23:15:57.278Z,100691.94
2022-10-05T23:18:24.146Z,100691.06
2022-10-05T23:20:55.231Z,100684.94
2022-10-05T23:23:23.046Z,100684.13
2022-10-05T23:25:50.354Z,100686.81
2022-10-05T23:28:17.085Z,100693.09
2022-10-05T23:30:43.859Z,100694.88
2022-10-05T23:33:10.561Z,100702.88
2022-10-05T23:35:37.131Z,100703.72
2022-10-05T23:38:04.699Z,100712.59
2022-10-05T23:40:31.328Z,100717.03
2022-10-05T23:42:58.406Z,100720.56
2022-10-05T23:45:25.136Z,100725.00
2022-10-05T23:47:51.711Z,100716.09
2022-10-05T23:50:20.539Z,100721.41
2022-10-05T23:52:47.128Z,100730.25
2022-10-05T23:55:13.761Z,100739.09
2022-10-05T23:57:40.354Z,100746.19
